createdAt,value
2018-12-08T00:00:26.933Z,1020.74
2018-12-08T00:01:07.748Z,1020.76
2018-12-08T00:01:48.581Z,1020.77
2018-12-08T00:02:29.415Z,1020.74
2018-12-08T00:03:10.657Z,1020.75
2018-12-08T00:03:52.344Z,1020.73
2018-12-08T00:04:35.487Z,1020.7
2018-12-08T00:07:00.835Z,1020.67
2018-12-08T00:07:41.611Z,1020.7
2018-12-08T00:08:22.386Z,1020.65
2018-12-08T00:09:07.723Z,1020.65
2018-12-08T00:09:51.426Z,1020.66
2018-12-08T00:10:32.263Z,1020.67
2018-12-08T00:11:13.047Z,1020.7
2018-12-08T00:11:53.863Z,1020.63
2018-12-08T00:12:34.566Z,1020.72
2018-12-08T00:13:15.263Z,1020.71
2018-12-08T00:13:56.000Z,1020.7
2018-12-08T00:14:36.830Z,1020.72
2018-12-08T00:15:17.635Z,1020.64
2018-12-08T00:15:58.436Z,1020.67
2018-12-08T00:16:39.156Z,1020.69
2018-12-08T00:17:20.724Z,1020.67
2018-12-08T00:18:01.469Z,1020.59
2018-12-08T00:18:42.226Z,1020.6
2018-12-08T00:21:06.071Z,1020.58
2018-12-08T00:21:46.767Z,1020.61
2018-12-08T00:22:27.564Z,1020.63
2018-12-08T00:23:08.451Z,1020.62
2018-12-08T00:23:49.195Z,1020.62
2018-12-08T00:24:29.907Z,1020.62
2018-12-08T00:25:10.632Z,1020.61
2018-12-08T00:25:51.435Z,1020.63
2018-12-08T00:26:33.458Z,1020.59
2018-12-08T00:27:14.277Z,1020.61
2018-12-08T00:27:55.077Z,1020.58
2018-12-08T00:28:36.125Z,1020.57
2018-12-08T00:29:17.084Z,1020.55
2018-12-08T00:29:58.106Z,1020.55
2018-12-08T00:30:38.810Z,1020.55
2018-12-08T00:31:19.568Z,1020.53
2018-12-08T00:32:00.344Z,1020.52
2018-12-08T00:32:41.415Z,1020.57
2018-12-08T00:33:22.029Z,1020.62
2018-12-08T00:34:02.834Z,1020.65
2018-12-08T00:34:43.549Z,1020.64
2018-12-08T00:35:45.679Z,1020.64
2018-12-08T00:36:26.516Z,1020.6
2018-12-08T00:37:07.275Z,1020.6
2018-12-08T00:37:48.000Z,1020.55
2018-12-08T00:38:32.100Z,1020.55
2018-12-08T00:39:12.892Z,1020.57
2018-12-08T00:39:53.761Z,1020.59
2018-12-08T00:40:34.541Z,1020.59
2018-12-08T00:41:15.326Z,1020.64
2018-12-08T00:41:56.041Z,1020.62
2018-12-08T00:42:36.759Z,1020.61
2018-12-08T00:43:17.549Z,1020.59
2018-12-08T00:43:58.390Z,1020.53
2018-12-08T00:44:45.991Z,1020.55
2018-12-08T00:45:32.083Z,1020.58
2018-12-08T00:46:16.890Z,1020.59
2018-12-08T00:46:57.650Z,1020.61
2018-12-08T00:47:38.451Z,1020.59
2018-12-08T00:48:19.168Z,1020.59
2018-12-08T00:48:59.910Z,1020.61
2018-12-08T00:49:40.637Z,1020.63
2018-12-08T00:50:21.342Z,1020.62
2018-12-08T00:51:02.118Z,1020.63
2018-12-08T00:51:42.961Z,1020.57
2018-12-08T00:52:23.687Z,1020.57
2018-12-08T00:53:04.427Z,1020.59
2018-12-08T00:53:52.171Z,1020.61
2018-12-08T00:54:32.955Z,1020.61
2018-12-08T00:55:13.671Z,1020.59
2018-12-08T00:55:54.349Z,1020.59
2018-12-08T00:56:35.100Z,1020.59
2018-12-08T00:57:15.932Z,1020.52
2018-12-08T00:57:56.716Z,1020.5
2018-12-08T00:58:37.477Z,1020.51
2018-12-08T00:59:18.224Z,1020.51
2018-12-08T00:59:59.028Z,1020.56
2018-12-08T01:00:39.871Z,1020.53
2018-12-08T01:01:24.899Z,1020.52
2018-12-08T01:02:05.623Z,1020.5
2018-12-08T01:02:46.402Z,1020.52
2018-12-08T01:03:27.198Z,1020.5
2018-12-08T01:04:07.916Z,1020.52
2018-12-08T01:04:48.617Z,1020.51
2018-12-08T01:05:30.009Z,1020.51
2018-12-08T01:06:10.886Z,1020.53
2018-12-08T01:06:51.690Z,1020.53
2018-12-08T01:07:32.479Z,1020.54
2018-12-08T01:08:13.247Z,1020.54
2018-12-08T01:08:53.995Z,1020.58
2018-12-08T01:09:34.716Z,1020.56
2018-12-08T01:10:15.439Z,1020.55
2018-12-08T01:10:56.247Z,1020.6
2018-12-08T01:11:36.962Z,1020.54
2018-12-08T01:12:17.719Z,1020.58
2018-12-08T01:12:58.483Z,1020.64
2018-12-08T01:13:39.254Z,1020.61
2018-12-08T01:14:20.009Z,1020.59
2018-12-08T01:15:00.728Z,1020.57
2018-12-08T01:15:41.569Z,1020.6
2018-12-08T01:16:22.271Z,1020.6
2018-12-08T01:17:05.651Z,1020.61
2018-12-08T01:19:30.243Z,1020.65
2018-12-08T01:20:11.024Z,1020.63
2018-12-08T01:20:51.749Z,1020.59
2018-12-08T01:21:32.515Z,1020.65
2018-12-08T01:22:13.329Z,1020.62
2018-12-08T01:22:54.119Z,1020.67
2018-12-08T01:23:34.859Z,1020.69
2018-12-08T01:24:15.596Z,1020.67
2018-12-08T01:24:56.460Z,1020.61
2018-12-08T01:25:37.267Z,1020.61
2018-12-08T01:26:17.991Z,1020.63
2018-12-08T01:26:58.730Z,1020.67
2018-12-08T01:27:40.978Z,1020.69
2018-12-08T01:28:20.234Z,1020.69
2018-12-08T01:29:00.977Z,1020.73
2018-12-08T01:29:50.111Z,1020.73
2018-12-08T01:30:30.916Z,1020.72
2018-12-08T01:31:11.765Z,1020.71
2018-12-08T01:31:52.589Z,1020.68
2018-12-08T01:32:33.309Z,1020.71
2018-12-08T01:33:14.034Z,1020.67
2018-12-08T01:33:54.730Z,1020.64
2018-12-08T01:34:35.507Z,1020.66
2018-12-08T01:35:16.358Z,1020.67
2018-12-08T01:35:57.106Z,1020.73
2018-12-08T01:36:37.899Z,1020.76
2018-12-08T01:37:18.564Z,1020.77
2018-12-08T01:37:59.307Z,1020.78
2018-12-08T01:38:40.127Z,1020.81
2018-12-08T01:39:20.844Z,1020.83
2018-12-08T01:40:01.530Z,1020.79
2018-12-08T01:40:42.276Z,1020.78
2018-12-08T01:41:23.051Z,1020.8
2018-12-08T01:42:03.840Z,1020.79
2018-12-08T01:42:44.856Z,1020.8
2018-12-08T01:43:25.615Z,1020.83
2018-12-08T01:44:06.308Z,1020.8
2018-12-08T01:44:47.002Z,1020.83
2018-12-08T01:45:27.751Z,1020.85
2018-12-08T01:46:08.593Z,1020.84
2018-12-08T01:46:49.300Z,1020.84
2018-12-08T01:47:30.068Z,1020.87
2018-12-08T01:48:10.887Z,1020.9
2018-12-08T01:48:51.670Z,1020.93
2018-12-08T01:49:32.503Z,1020.91
2018-12-08T01:50:13.199Z,1020.91
2018-12-08T01:50:53.957Z,1020.9
2018-12-08T01:51:35.809Z,1020.94
2018-12-08T01:52:16.585Z,1020.92
2018-12-08T01:52:57.380Z,1020.92
2018-12-08T01:53:38.187Z,1020.94
2018-12-08T01:54:18.918Z,1020.94
2018-12-08T01:54:59.666Z,1020.97
2018-12-08T01:55:40.425Z,1020.94
2018-12-08T01:56:21.189Z,1020.94
2018-12-08T01:57:01.864Z,1020.97
2018-12-08T01:57:46.007Z,1020.96
2018-12-08T01:58:26.758Z,1020.99
2018-12-08T01:59:10.673Z,1021.04
2018-12-08T01:59:51.407Z,1021.03
2018-12-08T02:00:32.182Z,1021.08
2018-12-08T02:01:12.955Z,1021.09
2018-12-08T02:01:53.790Z,1021.1
2018-12-08T02:02:34.602Z,1021.1
2018-12-08T02:03:15.353Z,1021.13
2018-12-08T02:03:56.070Z,1021.15
2018-12-08T02:04:36.911Z,1021.13
2018-12-08T02:05:17.607Z,1021.14
2018-12-08T02:06:00.055Z,1021.16
2018-12-08T02:06:43.490Z,1021.12
2018-12-08T02:07:23.906Z,1021.18
2018-12-08T02:08:04.719Z,1021.16
2018-12-08T02:08:45.496Z,1021.16
2018-12-08T02:09:27.382Z,1021.19
2018-12-08T02:10:08.166Z,1021.19
2018-12-08T02:10:48.911Z,1021.16
2018-12-08T02:11:29.643Z,1021.16
2018-12-08T02:12:10.411Z,1021.16
2018-12-08T02:12:51.194Z,1021.15
2018-12-08T02:13:31.942Z,1021.15
2018-12-08T02:14:12.722Z,1021.13
2018-12-08T02:14:56.934Z,1021.14
2018-12-08T02:15:52.522Z,1021.1
2018-12-08T02:16:35.596Z,1021.12
2018-12-08T02:17:16.345Z,1021.09
2018-12-08T02:17:57.099Z,1021.11
2018-12-08T02:18:37.920Z,1021.12
2018-12-08T02:19:18.655Z,1021.11
2018-12-08T02:19:59.458Z,1021.16
2018-12-08T02:20:40.206Z,1021.19
2018-12-08T02:21:20.883Z,1021.21
2018-12-08T02:22:01.694Z,1021.25
2018-12-08T02:22:42.480Z,1021.22
2018-12-08T02:23:23.222Z,1021.25
2018-12-08T02:24:03.923Z,1021.25
2018-12-08T02:24:44.633Z,1021.28
2018-12-08T02:25:25.437Z,1021.26
2018-12-08T02:26:07.085Z,1021.26
2018-12-08T02:26:47.857Z,1021.22
2018-12-08T02:27:28.636Z,1021.2
2018-12-08T02:28:09.374Z,1021.19
2018-12-08T02:28:50.077Z,1021.16
2018-12-08T02:29:36.684Z,1021.14
2018-12-08T02:30:17.526Z,1021.14
2018-12-08T02:30:58.217Z,1021.16
2018-12-08T02:31:38.950Z,1021.14
2018-12-08T02:32:19.741Z,1021.14
2018-12-08T02:33:00.579Z,1021.18
2018-12-08T02:33:41.342Z,1021.14
2018-12-08T02:34:22.049Z,1021.16
2018-12-08T02:35:05.789Z,1021.13
2018-12-08T02:35:46.592Z,1021.13
2018-12-08T02:36:29.554Z,1021.1
2018-12-08T02:37:10.307Z,1021.1
2018-12-08T02:37:50.999Z,1021.09
2018-12-08T02:38:31.791Z,1021.09
2018-12-08T02:39:12.541Z,1021.04
2018-12-08T02:39:53.252Z,1021.03
2018-12-08T02:40:34.019Z,1021
2018-12-08T02:41:14.838Z,1021.04
2018-12-08T02:41:55.636Z,1021.04
2018-12-08T02:42:36.376Z,1021.07
2018-12-08T02:43:17.094Z,1021.09
2018-12-08T02:43:57.802Z,1021.1
2018-12-08T02:44:38.536Z,1021.07
2018-12-08T02:45:19.341Z,1021.07
2018-12-08T02:46:00.158Z,1021.12
2018-12-08T02:46:40.937Z,1021.08
2018-12-08T02:47:21.643Z,1021.08
2018-12-08T02:48:02.368Z,1021.07
2018-12-08T02:48:43.210Z,1021.06
2018-12-08T02:49:23.970Z,1021.02
2018-12-08T02:50:19.606Z,1021
2018-12-08T02:51:00.324Z,1020.97
2018-12-08T02:51:42.105Z,1020.96
2018-12-08T02:52:22.909Z,1020.96
2018-12-08T02:53:03.699Z,1020.94
2018-12-08T02:53:44.456Z,1020.92
2018-12-08T02:54:25.185Z,1020.94
2018-12-08T02:55:05.866Z,1020.93
2018-12-08T02:55:48.122Z,1020.94
2018-12-08T02:56:28.910Z,1020.97
2018-12-08T02:57:09.631Z,1021
2018-12-08T02:57:50.383Z,1021
2018-12-08T02:58:31.218Z,1021.01
2018-12-08T02:59:11.976Z,1021
2018-12-08T02:59:52.827Z,1021.01
2018-12-08T03:00:33.551Z,1020.96
2018-12-08T03:01:14.264Z,1020.99
2018-12-08T03:01:55.006Z,1020.97
2018-12-08T03:02:35.814Z,1020.95
2018-12-08T03:03:16.590Z,1020.95
2018-12-08T03:03:57.377Z,1020.95
2018-12-08T03:04:38.102Z,1020.95
2018-12-08T03:05:18.840Z,1020.91
2018-12-08T03:05:59.692Z,1020.94
2018-12-08T03:06:40.467Z,1020.88
2018-12-08T03:07:21.206Z,1020.93
2018-12-08T03:08:01.906Z,1020.9
2018-12-08T03:08:42.677Z,1020.89
2018-12-08T03:09:23.481Z,1020.89
2018-12-08T03:10:04.223Z,1020.9
2018-12-08T03:10:44.996Z,1020.92
2018-12-08T03:11:25.792Z,1020.92
2018-12-08T03:12:06.595Z,1020.92
2018-12-08T03:12:47.394Z,1020.91
2018-12-08T03:13:28.170Z,1020.88
2018-12-08T03:14:08.863Z,1020.85
2018-12-08T03:14:49.685Z,1020.89
2018-12-08T03:15:30.464Z,1020.9
2018-12-08T03:16:11.161Z,1020.9
2018-12-08T03:16:51.874Z,1020.91
2018-12-08T03:17:32.622Z,1020.88
2018-12-08T03:18:13.455Z,1020.87
2018-12-08T03:18:54.282Z,1020.88
2018-12-08T03:19:35.090Z,1020.92
2018-12-08T03:20:15.803Z,1020.95
2018-12-08T03:20:56.560Z,1020.96
2018-12-08T03:21:37.335Z,1021.01
2018-12-08T03:22:18.229Z,1021.02
2018-12-08T03:22:58.970Z,1021.02
2018-12-08T03:23:39.641Z,1021.03
2018-12-08T03:24:20.410Z,1021.05
2018-12-08T03:25:01.213Z,1021.02
2018-12-08T03:25:41.989Z,1021
2018-12-08T03:26:22.717Z,1020.96
2018-12-08T03:27:03.448Z,1020.95
2018-12-08T03:27:44.244Z,1020.98
2018-12-08T03:28:25.000Z,1020.96
2018-12-08T03:29:05.708Z,1020.95
2018-12-08T03:29:46.397Z,1020.96
2018-12-08T03:30:27.116Z,1020.92
2018-12-08T03:31:07.936Z,1020.92
2018-12-08T03:31:49.292Z,1020.93
2018-12-08T03:32:30.036Z,1020.87
2018-12-08T03:33:10.843Z,1020.88
2018-12-08T03:33:51.608Z,1020.85
2018-12-08T03:34:32.373Z,1020.83
2018-12-08T03:35:13.128Z,1020.85
2018-12-08T03:35:53.876Z,1020.82
2018-12-08T03:36:34.601Z,1020.8
2018-12-08T03:37:15.391Z,1020.77
2018-12-08T03:37:56.143Z,1020.72
2018-12-08T03:38:36.948Z,1020.78
2018-12-08T03:39:17.758Z,1020.77
2018-12-08T03:39:58.514Z,1020.74
2018-12-08T03:40:39.309Z,1020.76
2018-12-08T03:41:20.118Z,1020.72
2018-12-08T03:42:00.832Z,1020.72
2018-12-08T03:42:41.548Z,1020.72
2018-12-08T03:43:22.289Z,1020.71
2018-12-08T03:44:03.078Z,1020.73
2018-12-08T03:44:43.845Z,1020.75
2018-12-08T03:45:24.559Z,1020.72
2018-12-08T03:46:05.366Z,1020.78
2018-12-08T03:46:46.126Z,1020.74
2018-12-08T03:47:26.920Z,1020.75
2018-12-08T03:48:07.722Z,1020.77
2018-12-08T03:48:48.461Z,1020.81
2018-12-08T03:49:29.980Z,1020.79
2018-12-08T03:50:10.729Z,1020.79
2018-12-08T03:50:51.502Z,1020.8
2018-12-08T03:51:32.194Z,1020.84
2018-12-08T03:52:12.890Z,1020.88
2018-12-08T03:52:53.723Z,1020.85
2018-12-08T03:53:34.782Z,1020.87
2018-12-08T03:54:15.553Z,1020.9
2018-12-08T03:54:56.285Z,1020.89
2018-12-08T03:55:37.048Z,1020.91
2018-12-08T03:56:20.973Z,1020.88
2018-12-08T03:57:01.777Z,1020.87
2018-12-08T03:57:42.567Z,1020.89
2018-12-08T03:58:23.300Z,1020.92
2018-12-08T03:59:04.065Z,1020.96
2018-12-08T03:59:47.800Z,1020.95
2018-12-08T04:00:28.580Z,1020.94
2018-12-08T04:01:09.278Z,1020.95
2018-12-08T04:01:50.038Z,1020.96
2018-12-08T04:02:30.787Z,1020.98
2018-12-08T04:03:11.552Z,1020.97
2018-12-08T04:03:52.348Z,1020.98
2018-12-08T04:04:33.153Z,1020.97
2018-12-08T04:05:13.907Z,1020.94
2018-12-08T04:05:54.650Z,1020.88
2018-12-08T04:06:35.453Z,1020.92
2018-12-08T04:07:16.251Z,1020.9
2018-12-08T04:07:57.034Z,1020.93
2018-12-08T04:08:37.752Z,1020.91
2018-12-08T04:09:18.522Z,1020.9
2018-12-08T04:09:59.302Z,1020.92
2018-12-08T04:10:40.028Z,1020.88
2018-12-08T04:11:20.868Z,1020.87
2018-12-08T04:12:01.653Z,1020.86
2018-12-08T04:12:42.432Z,1020.84
2018-12-08T04:13:23.142Z,1020.85
2018-12-08T04:14:03.837Z,1020.84
2018-12-08T04:14:44.691Z,1020.87
2018-12-08T04:15:25.428Z,1020.85
2018-12-08T04:16:06.254Z,1020.91
2018-12-08T04:16:46.979Z,1020.92
2018-12-08T04:17:27.796Z,1020.91
2018-12-08T04:18:08.626Z,1020.87
2018-12-08T04:18:49.393Z,1020.83
2018-12-08T04:19:30.072Z,1020.85
2018-12-08T04:20:10.951Z,1020.82
2018-12-08T04:20:51.708Z,1020.83
2018-12-08T04:21:32.405Z,1020.83
2018-12-08T04:22:13.189Z,1020.85
2018-12-08T04:22:53.921Z,1020.84
2018-12-08T04:23:34.690Z,1020.83
2018-12-08T04:24:15.401Z,1020.83
2018-12-08T04:24:56.144Z,1020.84
2018-12-08T04:25:36.944Z,1020.82
2018-12-08T04:26:17.751Z,1020.88
2018-12-08T04:26:58.547Z,1020.86
2018-12-08T04:27:39.280Z,1020.87
2018-12-08T04:28:20.006Z,1020.89
2018-12-08T04:29:00.739Z,1020.88
2018-12-08T04:29:41.536Z,1020.9
2018-12-08T04:30:22.312Z,1020.89
2018-12-08T04:31:03.133Z,1020.9
2018-12-08T04:31:43.889Z,1020.92
2018-12-08T04:32:24.579Z,1020.92
2018-12-08T04:33:05.370Z,1020.88
2018-12-08T04:33:46.105Z,1020.9
2018-12-08T04:34:26.822Z,1020.91
2018-12-08T04:35:07.545Z,1020.9
2018-12-08T04:35:48.248Z,1020.91
2018-12-08T04:36:29.040Z,1020.88
2018-12-08T04:37:09.834Z,1020.95
2018-12-08T04:37:50.659Z,1020.94
2018-12-08T04:38:31.371Z,1021
2018-12-08T04:39:12.103Z,1021.01
2018-12-08T04:39:52.831Z,1021.03
2018-12-08T04:40:33.606Z,1021.01
2018-12-08T04:41:14.421Z,1020.99
2018-12-08T04:41:55.143Z,1020.99
2018-12-08T04:42:35.905Z,1020.97
2018-12-08T04:43:16.682Z,1020.99
2018-12-08T04:43:57.453Z,1020.98
2018-12-08T04:44:44.192Z,1020.98
2018-12-08T04:45:24.895Z,1021
2018-12-08T04:46:05.643Z,1020.94
2018-12-08T04:46:46.359Z,1020.99
2018-12-08T04:47:27.160Z,1021.01
2018-12-08T04:48:07.961Z,1020.99
2018-12-08T04:48:48.833Z,1020.97
2018-12-08T04:49:29.573Z,1021.02
2018-12-08T04:50:10.297Z,1021
2018-12-08T04:50:51.085Z,1021.01
2018-12-08T04:51:31.853Z,1020.99
2018-12-08T04:52:12.586Z,1021
2018-12-08T04:52:53.336Z,1020.98
2018-12-08T04:53:34.075Z,1020.98
2018-12-08T04:54:14.880Z,1020.97
2018-12-08T04:54:55.621Z,1020.98
2018-12-08T04:55:36.364Z,1021.02
2018-12-08T04:56:17.147Z,1021.03
2018-12-08T04:56:57.977Z,1021.03
2018-12-08T04:57:38.813Z,1021.08
2018-12-08T04:58:19.522Z,1021.14
2018-12-08T04:59:06.926Z,1021.14
2018-12-08T04:59:47.733Z,1021.15
2018-12-08T05:00:28.466Z,1021.15
2018-12-08T05:01:09.182Z,1021.18
2018-12-08T05:01:49.872Z,1021.17
2018-12-08T05:02:31.633Z,1021.18
2018-12-08T05:03:12.436Z,1021.14
2018-12-08T05:03:53.169Z,1021.12
2018-12-08T05:04:33.931Z,1021.15
2018-12-08T05:05:14.632Z,1021.14
2018-12-08T05:05:55.363Z,1021.14
2018-12-08T05:06:36.831Z,1021.15
2018-12-08T05:07:17.638Z,1021.16
2018-12-08T05:07:58.437Z,1021.14
2018-12-08T05:08:39.173Z,1021.18
2018-12-08T05:09:19.949Z,1021.14
2018-12-08T05:10:00.750Z,1021.17
2018-12-08T05:10:41.546Z,1021.2
2018-12-08T05:11:22.262Z,1021.16
2018-12-08T05:12:02.976Z,1021.19
2018-12-08T05:12:43.691Z,1021.19
2018-12-08T05:13:24.469Z,1021.19
2018-12-08T05:14:05.325Z,1021.21
2018-12-08T05:14:46.126Z,1021.18
2018-12-08T05:15:26.879Z,1021.17
2018-12-08T05:16:07.550Z,1021.19
2018-12-08T05:16:48.334Z,1021.18
2018-12-08T05:17:31.712Z,1021.18
2018-12-08T05:18:12.443Z,1021.17
2018-12-08T05:18:53.156Z,1021.16
2018-12-08T05:19:33.872Z,1021.16
2018-12-08T05:20:14.623Z,1021.15
2018-12-08T05:20:55.469Z,1021.18
2018-12-08T05:21:36.282Z,1021.16
2018-12-08T05:22:17.055Z,1021.16
2018-12-08T05:22:57.816Z,1021.21
2018-12-08T05:23:38.546Z,1021.18
2018-12-08T05:24:19.376Z,1021.21
2018-12-08T05:25:00.248Z,1021.18
2018-12-08T05:25:40.953Z,1021.17
2018-12-08T05:26:21.743Z,1021.19
2018-12-08T05:27:02.540Z,1021.21
2018-12-08T05:27:43.326Z,1021.21
2018-12-08T05:28:24.179Z,1021.22
2018-12-08T05:29:04.888Z,1021.25
2018-12-08T05:29:45.636Z,1021.24
2018-12-08T05:30:26.446Z,1021.27
2018-12-08T05:31:07.389Z,1021.29
2018-12-08T05:31:48.103Z,1021.33
2018-12-08T05:32:28.793Z,1021.35
2018-12-08T05:33:09.571Z,1021.32
2018-12-08T05:33:50.333Z,1021.34
2018-12-08T05:34:31.056Z,1021.38
2018-12-08T05:35:11.876Z,1021.35
2018-12-08T05:35:53.696Z,1021.38
2018-12-08T05:36:34.483Z,1021.35
2018-12-08T05:37:15.251Z,1021.34
2018-12-08T05:37:56.025Z,1021.4
2018-12-08T05:38:36.751Z,1021.41
2018-12-08T05:39:18.207Z,1021.44
2018-12-08T05:40:05.624Z,1021.42
2018-12-08T05:40:46.399Z,1021.42
2018-12-08T05:41:29.964Z,1021.44
2018-12-08T05:42:10.709Z,1021.49
2018-12-08T05:42:51.463Z,1021.46
2018-12-08T05:43:32.284Z,1021.44
2018-12-08T05:44:13.027Z,1021.47
2018-12-08T05:44:53.771Z,1021.45
2018-12-08T05:45:34.505Z,1021.46
2018-12-08T05:46:15.269Z,1021.47
2018-12-08T05:46:56.105Z,1021.48
2018-12-08T05:47:36.793Z,1021.48
2018-12-08T05:48:17.524Z,1021.47
2018-12-08T05:48:58.322Z,1021.45
2018-12-08T05:49:39.133Z,1021.46
2018-12-08T05:50:19.892Z,1021.45
2018-12-08T05:51:00.658Z,1021.43
2018-12-08T05:51:41.395Z,1021.51
2018-12-08T05:52:22.180Z,1021.49
2018-12-08T05:53:02.889Z,1021.47
2018-12-08T05:53:43.620Z,1021.5
2018-12-08T05:54:24.332Z,1021.46
2018-12-08T05:55:05.077Z,1021.51
2018-12-08T05:55:45.871Z,1021.48
2018-12-08T05:56:26.678Z,1021.5
2018-12-08T05:57:07.379Z,1021.47
2018-12-08T05:57:48.074Z,1021.48
2018-12-08T05:58:28.812Z,1021.47
2018-12-08T05:59:09.536Z,1021.45
2018-12-08T05:59:50.320Z,1021.46
2018-12-08T06:00:31.052Z,1021.44
2018-12-08T06:01:11.787Z,1021.45
2018-12-08T06:01:52.626Z,1021.48
2018-12-08T06:02:33.357Z,1021.46
2018-12-08T06:03:14.186Z,1021.51
2018-12-08T06:03:54.882Z,1021.49
2018-12-08T06:04:35.634Z,1021.5
2018-12-08T06:05:16.438Z,1021.51
2018-12-08T06:05:57.173Z,1021.49
2018-12-08T06:06:37.899Z,1021.51
2018-12-08T06:07:18.657Z,1021.47
2018-12-08T06:07:59.427Z,1021.52
2018-12-08T06:08:40.204Z,1021.5
2018-12-08T06:09:20.950Z,1021.51
2018-12-08T06:10:01.698Z,1021.53
2018-12-08T06:10:42.516Z,1021.55
2018-12-08T06:11:23.264Z,1021.57
2018-12-08T06:12:04.056Z,1021.6
2018-12-08T06:12:46.606Z,1021.58
2018-12-08T06:13:27.327Z,1021.62
2018-12-08T06:14:08.086Z,1021.59
2018-12-08T06:14:48.935Z,1021.63
2018-12-08T06:15:29.705Z,1021.67
2018-12-08T06:16:10.538Z,1021.69
2018-12-08T06:16:51.299Z,1021.65
2018-12-08T06:17:32.043Z,1021.69
2018-12-08T06:18:12.911Z,1021.69
2018-12-08T06:18:53.665Z,1021.71
2018-12-08T06:19:34.422Z,1021.69
2018-12-08T06:20:15.149Z,1021.71
2018-12-08T06:20:55.877Z,1021.73
2018-12-08T06:21:37.504Z,1021.74
2018-12-08T06:22:18.283Z,1021.76
2018-12-08T06:22:59.048Z,1021.76
2018-12-08T06:23:39.790Z,1021.8
2018-12-08T06:24:22.797Z,1021.78
2018-12-08T06:25:03.559Z,1021.82
2018-12-08T06:25:44.396Z,1021.79
2018-12-08T06:26:25.208Z,1021.79
2018-12-08T06:27:05.939Z,1021.78
2018-12-08T06:27:46.670Z,1021.81
2018-12-08T06:28:27.477Z,1021.85
2018-12-08T06:29:08.307Z,1021.8
2018-12-08T06:29:49.036Z,1021.9
2018-12-08T06:30:29.777Z,1021.88
2018-12-08T06:31:10.477Z,1021.88
2018-12-08T06:31:51.192Z,1021.89
2018-12-08T06:32:32.058Z,1021.92
2018-12-08T06:33:12.736Z,1021.91
2018-12-08T06:33:53.555Z,1021.95
2018-12-08T06:34:34.284Z,1021.98
2018-12-08T06:35:15.113Z,1021.98
2018-12-08T06:35:55.934Z,1021.99
2018-12-08T06:36:36.629Z,1022.03
2018-12-08T06:37:17.336Z,1022.02
2018-12-08T06:37:58.073Z,1022.08
2018-12-08T06:38:38.874Z,1022.11
2018-12-08T06:39:19.709Z,1022.09
2018-12-08T06:40:00.461Z,1022.08
2018-12-08T06:40:41.243Z,1022.06
2018-12-08T06:41:22.031Z,1022.12
2018-12-08T06:42:03.277Z,1022.12
2018-12-08T06:42:44.049Z,1022.11
2018-12-08T06:43:27.662Z,1022.12
2018-12-08T06:44:08.419Z,1022.1
2018-12-08T06:44:49.207Z,1022.14
2018-12-08T06:45:29.897Z,1022.13
2018-12-08T06:46:10.627Z,1022.16
2018-12-08T06:46:51.404Z,1022.13
2018-12-08T06:47:32.253Z,1022.12
2018-12-08T06:48:13.039Z,1022.14
2018-12-08T06:48:53.832Z,1022.14
2018-12-08T06:49:41.237Z,1022.15
2018-12-08T06:50:21.992Z,1022.14
2018-12-08T06:51:02.733Z,1022.15
2018-12-08T06:51:43.460Z,1022.18
2018-12-08T06:52:27.675Z,1022.18
2018-12-08T06:53:08.376Z,1022.21
2018-12-08T06:53:49.113Z,1022.21
2018-12-08T06:54:29.935Z,1022.25
2018-12-08T06:55:10.675Z,1022.26
2018-12-08T06:55:52.884Z,1022.24
2018-12-08T06:56:33.648Z,1022.25
2018-12-08T06:57:14.413Z,1022.25
2018-12-08T06:57:55.169Z,1022.29
2018-12-08T06:58:35.886Z,1022.29
2018-12-08T06:59:16.597Z,1022.29
2018-12-08T06:59:57.302Z,1022.29
2018-12-08T07:00:38.114Z,1022.34
2018-12-08T07:01:18.840Z,1022.35
2018-12-08T07:01:59.577Z,1022.37
2018-12-08T07:02:40.316Z,1022.44
2018-12-08T07:03:21.079Z,1022.43
2018-12-08T07:04:01.870Z,1022.45
2018-12-08T07:04:42.614Z,1022.47
2018-12-08T07:05:28.003Z,1022.47
2018-12-08T07:06:08.758Z,1022.46
2018-12-08T07:06:49.475Z,1022.48
2018-12-08T07:07:30.299Z,1022.48
2018-12-08T07:08:11.108Z,1022.46
2018-12-08T07:08:51.932Z,1022.48
2018-12-08T07:09:32.653Z,1022.51
2018-12-08T07:10:13.426Z,1022.53
2018-12-08T07:10:54.247Z,1022.56
2018-12-08T07:11:41.632Z,1022.57
2018-12-08T07:12:22.356Z,1022.61
2018-12-08T07:13:03.078Z,1022.64
2018-12-08T07:13:44.683Z,1022.69
2018-12-08T07:14:25.487Z,1022.7
2018-12-08T07:15:06.120Z,1022.7
2018-12-08T07:15:46.899Z,1022.72
2018-12-08T07:16:27.676Z,1022.75
2018-12-08T07:17:08.495Z,1022.75
2018-12-08T07:17:49.244Z,1022.77
2018-12-08T07:18:32.081Z,1022.79
2018-12-08T07:19:12.918Z,1022.81
2018-12-08T07:19:53.725Z,1022.82
2018-12-08T07:20:34.450Z,1022.86
2018-12-08T07:21:21.971Z,1022.91
2018-12-08T07:22:02.692Z,1022.9
2018-12-08T07:22:43.513Z,1022.9
2018-12-08T07:23:24.230Z,1022.92
2018-12-08T07:24:05.039Z,1022.96
2018-12-08T07:24:45.745Z,1022.93
2018-12-08T07:25:26.491Z,1022.98
2018-12-08T07:26:07.184Z,1022.99
2018-12-08T07:26:47.922Z,1023.01
2018-12-08T07:27:28.714Z,1023.04
2018-12-08T07:28:09.404Z,1023.02
2018-12-08T07:28:50.122Z,1023.04
2018-12-08T07:29:30.947Z,1023.04
2018-12-08T07:30:11.750Z,1023.08
2018-12-08T07:30:52.508Z,1023.09
2018-12-08T07:31:33.173Z,1023.06
2018-12-08T07:32:13.875Z,1023.11
2018-12-08T07:32:54.625Z,1023.1
2018-12-08T07:33:35.427Z,1023.12
2018-12-08T07:34:16.166Z,1023.12
2018-12-08T07:34:56.978Z,1023.12
2018-12-08T07:35:39.518Z,1023.11
2018-12-08T07:36:20.261Z,1023.13
2018-12-08T07:37:01.041Z,1023.14
2018-12-08T07:37:41.814Z,1023.14
2018-12-08T07:38:22.540Z,1023.16
2018-12-08T07:39:04.108Z,1023.18
2018-12-08T07:39:44.279Z,1023.12
2018-12-08T07:40:25.100Z,1023.16
2018-12-08T07:41:05.930Z,1023.19
2018-12-08T07:41:46.743Z,1023.18
2018-12-08T07:42:27.533Z,1023.22
2018-12-08T07:43:08.295Z,1023.19
2018-12-08T07:43:48.998Z,1023.19
2018-12-08T07:44:29.814Z,1023.21
2018-12-08T07:45:10.610Z,1023.24
2018-12-08T07:45:51.331Z,1023.22
2018-12-08T07:46:32.222Z,1023.25
2018-12-08T07:47:13.037Z,1023.25
2018-12-08T07:47:53.843Z,1023.22
2018-12-08T07:48:34.602Z,1023.24
2018-12-08T07:49:16.190Z,1023.23
2018-12-08T07:49:56.987Z,1023.25
2018-12-08T07:50:37.726Z,1023.26
2018-12-08T07:51:18.505Z,1023.27
2018-12-08T07:52:19.844Z,1023.32
2018-12-08T07:53:00.617Z,1023.32
2018-12-08T07:53:57.691Z,1023.34
2018-12-08T07:54:38.492Z,1023.3
2018-12-08T07:55:19.334Z,1023.36
2018-12-08T07:56:00.088Z,1023.32
2018-12-08T07:56:40.861Z,1023.39
2018-12-08T07:57:21.718Z,1023.28
2018-12-08T07:58:04.647Z,1023.32
2018-12-08T07:58:52.000Z,1023.33
2018-12-08T07:59:32.741Z,1023.32
2018-12-08T08:00:14.920Z,1023.3
2018-12-08T08:00:55.753Z,1023.34
2018-12-08T08:01:36.662Z,1023.33
2018-12-08T08:02:17.412Z,1023.32
2018-12-08T08:02:58.137Z,1023.33
2018-12-08T08:04:00.822Z,1023.29
2018-12-08T08:04:56.544Z,1023.33
2018-12-08T08:05:37.226Z,1023.33
2018-12-08T08:06:32.840Z,1023.32
2018-12-08T08:07:13.537Z,1023.36
2018-12-08T08:07:57.048Z,1023.37
2018-12-08T08:08:37.800Z,1023.4
2018-12-08T08:09:18.633Z,1023.44
2018-12-08T08:10:02.189Z,1023.45
2018-12-08T08:10:42.969Z,1023.44
2018-12-08T08:11:23.863Z,1023.46
2018-12-08T08:12:04.575Z,1023.49
2018-12-08T08:12:52.013Z,1023.51
2018-12-08T08:14:56.372Z,1023.6
2018-12-08T08:15:37.104Z,1023.6
2018-12-08T08:18:07.324Z,1023.69
2018-12-08T08:20:38.970Z,1023.68
2018-12-08T08:21:19.696Z,1023.67
2018-12-08T08:22:00.536Z,1023.68
2018-12-08T08:22:41.284Z,1023.64
2018-12-08T08:23:22.004Z,1023.62
2018-12-08T08:24:02.725Z,1023.65
2018-12-08T08:26:03.114Z,1023.65
2018-12-08T08:26:43.883Z,1023.65
2018-12-08T08:27:24.720Z,1023.65
2018-12-08T08:28:05.510Z,1023.64
2018-12-08T08:28:46.362Z,1023.6
2018-12-08T08:29:27.101Z,1023.66
2018-12-08T08:30:07.839Z,1023.63
2018-12-08T08:30:48.579Z,1023.58
2018-12-08T08:31:29.400Z,1023.61
2018-12-08T08:32:10.190Z,1023.6